sensor_id;sensor_type;location;lat;lon;timestamp;P1;durP1;ratioP1;P2;durP2;ratioP2
9094;SDS011;4583;49.796;9.902;2023-04-16T00:03:41;5.60;;;4.17;;
9094;SDS011;4583;49.796;9.902;2023-04-16T00:13:43;4.87;;;4.37;;
9094;SDS011;4583;49.796;9.902;2023-04-16T00:23:45;6.60;;;4.70;;
9094;SDS011;4583;49.796;9.902;2023-04-16T00:33:46;8.33;;;5.33;;
9094;SDS011;4583;49.796;9.902;2023-04-16T00:43:48;8.50;;;5.50;;
9094;SDS011;4583;49.796;9.902;2023-04-16T00:53:50;9.13;;;6.60;;
9094;SDS011;4583;49.796;9.902;2023-04-16T01:03:52;8.60;;;6.30;;
9094;SDS011;4583;49.796;9.902;2023-04-16T01:13:55;9.63;;;6.60;;
9094;SDS011;4583;49.796;9.902;2023-04-16T01:23:57;7.53;;;6.10;;
9094;SDS011;4583;49.796;9.902;2023-04-16T01:34:02;7.30;;;5.83;;
9094;SDS011;4583;49.796;9.902;2023-04-16T01:44:03;8.73;;;6.57;;
9094;SDS011;4583;49.796;9.902;2023-04-16T01:54:05;8.23;;;6.50;;
9094;SDS011;4583;49.796;9.902;2023-04-16T02:04:07;10.47;;;8.07;;
9094;SDS011;4583;49.796;9.902;2023-04-16T02:14:09;9.73;;;7.83;;
9094;SDS011;4583;49.796;9.902;2023-04-16T02:24:10;11.57;;;9.17;;
9094;SDS011;4583;49.796;9.902;2023-04-16T02:34:12;15.67;;;10.13;;
9094;SDS011;4583;49.796;9.902;2023-04-16T02:44:13;16.40;;;11.70;;
9094;SDS011;4583;49.796;9.902;2023-04-16T02:54:16;16.73;;;12.07;;
9094;SDS011;4583;49.796;9.902;2023-04-16T03:04:17;20.73;;;13.50;;
9094;SDS011;4583;49.796;9.902;2023-04-16T03:14:19;18.93;;;13.57;;
9094;SDS011;4583;49.796;9.902;2023-04-16T03:24:21;21.17;;;13.97;;
9094;SDS011;4583;49.796;9.902;2023-04-16T03:34:23;23.40;;;14.60;;
9094;SDS011;4583;49.796;9.902;2023-04-16T03:44:24;22.77;;;14.77;;
9094;SDS011;4583;49.796;9.902;2023-04-16T03:54:26;21.87;;;15.07;;
9094;SDS011;4583;49.796;9.902;2023-04-16T04:04:28;24.70;;;15.30;;
9094;SDS011;4583;49.796;9.902;2023-04-16T04:14:29;21.90;;;14.87;;
9094;SDS011;4583;49.796;9.902;2023-04-16T04:24:31;25.00;;;16.50;;
9094;SDS011;4583;49.796;9.902;2023-04-16T04:34:32;26.33;;;17.63;;
9094;SDS011;4583;49.796;9.902;2023-04-16T04:44:34;27.00;;;18.70;;
9094;SDS011;4583;49.796;9.902;2023-04-16T04:54:36;22.37;;;15.80;;
9094;SDS011;4583;49.796;9.902;2023-04-16T05:04:41;24.67;;;17.13;;
9094;SDS011;4583;49.796;9.902;2023-04-16T05:14:43;27.37;;;18.47;;
9094;SDS011;4583;49.796;9.902;2023-04-16T05:24:44;24.10;;;17.67;;
9094;SDS011;4583;49.796;9.902;2023-04-16T05:34:46;27.97;;;18.57;;
9094;SDS011;4583;49.796;9.902;2023-04-16T05:44:49;30.33;;;19.90;;
9094;SDS011;4583;49.796;9.902;2023-04-16T05:54:52;27.17;;;18.17;;
9094;SDS011;4583;49.796;9.902;2023-04-16T06:04:54;23.00;;;16.10;;
9094;SDS011;4583;49.796;9.902;2023-04-16T06:14:56;22.83;;;15.73;;
9094;SDS011;4583;49.796;9.902;2023-04-16T06:24:57;21.43;;;14.87;;
9094;SDS011;4583;49.796;9.902;2023-04-16T06:34:59;23.10;;;15.37;;
9094;SDS011;4583;49.796;9.902;2023-04-16T06:45:01;20.47;;;14.03;;
9094;SDS011;4583;49.796;9.902;2023-04-16T06:55:03;19.97;;;14.00;;
9094;SDS011;4583;49.796;9.902;2023-04-16T07:05:05;22.17;;;15.27;;
9094;SDS011;4583;49.796;9.902;2023-04-16T07:15:09;18.50;;;13.23;;
9094;SDS011;4583;49.796;9.902;2023-04-16T07:25:12;17.70;;;12.37;;
9094;SDS011;4583;49.796;9.902;2023-04-16T07:35:13;20.83;;;13.10;;
9094;SDS011;4583;49.796;9.902;2023-04-16T07:45:16;19.07;;;12.77;;
9094;SDS011;4583;49.796;9.902;2023-04-16T07:55:18;15.53;;;12.30;;
9094;SDS011;4583;49.796;9.902;2023-04-16T08:05:19;16.23;;;11.77;;
9094;SDS011;4583;49.796;9.902;2023-04-16T08:15:21;15.03;;;10.63;;
9094;SDS011;4583;49.796;9.902;2023-04-16T08:25:23;13.63;;;10.23;;
9094;SDS011;4583;49.796;9.902;2023-04-16T08:35:25;12.40;;;9.47;;
9094;SDS011;4583;49.796;9.902;2023-04-16T08:45:27;12.47;;;9.37;;
9094;SDS011;4583;49.796;9.902;2023-04-16T08:55:31;12.77;;;9.13;;
9094;SDS011;4583;49.796;9.902;2023-04-16T09:05:39;11.23;;;8.50;;
9094;SDS011;4583;49.796;9.902;2023-04-16T09:15:42;10.17;;;7.97;;
9094;SDS011;4583;49.796;9.902;2023-04-16T09:25:44;9.90;;;7.23;;
9094;SDS011;4583;49.796;9.902;2023-04-16T09:35:49;8.90;;;7.20;;
9094;SDS011;4583;49.796;9.902;2023-04-16T09:45:53;8.77;;;6.80;;
9094;SDS011;4583;49.796;9.902;2023-04-16T09:55:58;7.10;;;6.27;;
9094;SDS011;4583;49.796;9.902;2023-04-16T10:06:08;7.73;;;5.27;;
9094;SDS011;4583;49.796;9.902;2023-04-16T10:16:14;5.77;;;5.17;;
9094;SDS011;4583;49.796;9.902;2023-04-16T10:26:16;7.70;;;5.17;;
9094;SDS011;4583;49.796;9.902;2023-04-16T10:36:22;5.63;;;4.80;;
9094;SDS011;4583;49.796;9.902;2023-04-16T10:46:25;5.50;;;4.73;;
9094;SDS011;4583;49.796;9.902;2023-04-16T10:56:31;8.97;;;7.43;;
9094;SDS011;4583;49.796;9.902;2023-04-16T11:06:34;5.53;;;4.33;;
9094;SDS011;4583;49.796;9.902;2023-04-16T11:16:39;5.60;;;4.50;;
9094;SDS011;4583;49.796;9.902;2023-04-16T11:26:41;7.30;;;4.60;;
9094;SDS011;4583;49.796;9.902;2023-04-16T11:36:43;6.53;;;4.97;;
9094;SDS011;4583;49.796;9.902;2023-04-16T11:46:46;6.03;;;5.10;;
9094;SDS011;4583;49.796;9.902;2023-04-16T11:56:49;5.47;;;4.83;;
9094;SDS011;4583;49.796;9.902;2023-04-16T12:17:17;5.30;;;4.47;;
9094;SDS011;4583;49.796;9.902;2023-04-16T12:27:19;7.37;;;5.10;;
9094;SDS011;4583;49.796;9.902;2023-04-16T12:37:22;6.63;;;4.50;;
9094;SDS011;4583;49.796;9.902;2023-04-16T12:47:24;5.73;;;5.00;;
9094;SDS011;4583;49.796;9.902;2023-04-16T12:57:26;5.70;;;5.10;;
9094;SDS011;4583;49.796;9.902;2023-04-16T13:07:28;5.97;;;5.20;;
9094;SDS011;4583;49.796;9.902;2023-04-16T13:17:32;5.50;;;4.77;;
9094;SDS011;4583;49.796;9.902;2023-04-16T13:27:34;6.23;;;5.53;;
9094;SDS011;4583;49.796;9.902;2023-04-16T13:37:35;6.03;;;5.10;;
9094;SDS011;4583;49.796;9.902;2023-04-16T13:47:41;7.10;;;5.70;;
9094;SDS011;4583;49.796;9.902;2023-04-16T13:57:46;11.00;;;6.00;;
9094;SDS011;4583;49.796;9.902;2023-04-16T14:07:50;7.43;;;5.90;;
9094;SDS011;4583;49.796;9.902;2023-04-16T14:17:51;6.90;;;6.03;;
9094;SDS011;4583;49.796;9.902;2023-04-16T14:27:53;7.43;;;6.17;;
9094;SDS011;4583;49.796;9.902;2023-04-16T14:37:56;8.50;;;6.47;;
9094;SDS011;4583;49.796;9.902;2023-04-16T14:47:58;9.47;;;5.83;;
9094;SDS011;4583;49.796;9.902;2023-04-16T14:58:00;8.60;;;6.63;;
9094;SDS011;4583;49.796;9.902;2023-04-16T15:08:01;8.90;;;6.80;;
9094;SDS011;4583;49.796;9.902;2023-04-16T15:18:04;9.77;;;7.33;;
9094;SDS011;4583;49.796;9.902;2023-04-16T15:28:06;7.37;;;6.40;;
9094;SDS011;4583;49.796;9.902;2023-04-16T15:38:07;10.10;;;6.83;;
9094;SDS011;4583;49.796;9.902;2023-04-16T15:48:09;8.37;;;6.53;;
9094;SDS011;4583;49.796;9.902;2023-04-16T15:58:11;10.53;;;7.40;;
9094;SDS011;4583;49.796;9.902;2023-04-16T16:08:13;10.57;;;7.60;;
9094;SDS011;4583;49.796;9.902;2023-04-16T16:18:17;9.07;;;7.37;;
9094;SDS011;4583;49.796;9.902;2023-04-16T16:28:18;8.67;;;6.47;;
9094;SDS011;4583;49.796;9.902;2023-04-16T16:38:20;7.73;;;6.27;;
9094;SDS011;4583;49.796;9.902;2023-04-16T16:48:22;9.20;;;6.10;;
9094;SDS011;4583;49.796;9.902;2023-04-16T16:58:24;6.97;;;5.70;;
9094;SDS011;4583;49.796;9.902;2023-04-16T17:08:25;7.20;;;5.73;;
9094;SDS011;4583;49.796;9.902;2023-04-16T17:18:28;5.37;;;4.67;;
9094;SDS011;4583;49.796;9.902;2023-04-16T17:28:29;5.53;;;4.70;;
9094;SDS011;4583;49.796;9.902;2023-04-16T17:38:31;5.80;;;4.67;;
9094;SDS011;4583;49.796;9.902;2023-04-16T17:48:34;6.30;;;5.13;;
9094;SDS011;4583;49.796;9.902;2023-04-16T17:58:35;6.67;;;5.43;;
9094;SDS011;4583;49.796;9.902;2023-04-16T18:08:37;7.20;;;6.10;;
9094;SDS011;4583;49.796;9.902;2023-04-16T18:18:39;6.97;;;6.17;;
9094;SDS011;4583;49.796;9.902;2023-04-16T18:28:41;9.47;;;7.07;;
9094;SDS011;4583;49.796;9.902;2023-04-16T18:38:42;9.27;;;7.37;;
9094;SDS011;4583;49.796;9.902;2023-04-16T18:49:01;11.67;;;7.70;;
9094;SDS011;4583;49.796;9.902;2023-04-16T18:59:03;11.13;;;8.00;;
9094;SDS011;4583;49.796;9.902;2023-04-16T19:09:04;11.47;;;8.60;;
9094;SDS011;4583;49.796;9.902;2023-04-16T19:19:06;10.87;;;8.60;;
9094;SDS011;4583;49.796;9.902;2023-04-16T19:29:08;13.13;;;9.07;;
9094;SDS011;4583;49.796;9.902;2023-04-16T19:39:10;11.63;;;9.60;;
9094;SDS011;4583;49.796;9.902;2023-04-16T19:49:12;14.67;;;10.40;;
9094;SDS011;4583;49.796;9.902;2023-04-16T19:59:14;11.97;;;9.23;;
9094;SDS011;4583;49.796;9.902;2023-04-16T20:09:15;14.40;;;10.10;;
9094;SDS011;4583;49.796;9.902;2023-04-16T20:19:19;14.50;;;10.63;;
9094;SDS011;4583;49.796;9.902;2023-04-16T20:29:22;15.07;;;10.70;;
9094;SDS011;4583;49.796;9.902;2023-04-16T20:39:23;20.60;;;14.03;;
9094;SDS011;4583;49.796;9.902;2023-04-16T20:49:26;16.63;;;11.63;;
9094;SDS011;4583;49.796;9.902;2023-04-16T20:59:28;15.80;;;12.20;;
9094;SDS011;4583;49.796;9.902;2023-04-16T21:09:29;16.53;;;12.03;;
9094;SDS011;4583;49.796;9.902;2023-04-16T21:19:31;22.90;;;13.07;;
9094;SDS011;4583;49.796;9.902;2023-04-16T21:29:33;16.70;;;11.63;;
9094;SDS011;4583;49.796;9.902;2023-04-16T21:39:35;17.13;;;11.83;;
9094;SDS011;4583;49.796;9.902;2023-04-16T21:49:36;17.70;;;12.43;;
9094;SDS011;4583;49.796;9.902;2023-04-16T21:59:38;18.43;;;12.73;;
9094;SDS011;4583;49.796;9.902;2023-04-16T22:09:40;18.73;;;12.73;;
9094;SDS011;4583;49.796;9.902;2023-04-16T22:19:41;19.20;;;12.47;;
9094;SDS011;4583;49.796;9.902;2023-04-16T22:29:44;20.07;;;12.83;;
9094;SDS011;4583;49.796;9.902;2023-04-16T22:39:46;18.93;;;12.87;;
9094;SDS011;4583;49.796;9.902;2023-04-16T22:49:47;17.90;;;12.07;;
9094;SDS011;4583;49.796;9.902;2023-04-16T22:59:50;19.23;;;12.77;;
9094;SDS011;4583;49.796;9.902;2023-04-16T23:09:52;17.00;;;11.97;;
9094;SDS011;4583;49.796;9.902;2023-04-16T23:19:53;16.73;;;12.40;;
9094;SDS011;4583;49.796;9.902;2023-04-16T23:29:55;16.33;;;12.33;;
9094;SDS011;4583;49.796;9.902;2023-04-16T23:39:57;17.87;;;12.43;;
9094;SDS011;4583;49.796;9.902;2023-04-16T23:49:58;15.57;;;11.70;;
